Ferndale, Pennsylvania
Current Conditions -  °F | °C
As of 10:15 PM on Wednesday 22 Oct 2014 (Local Time) from KUKT Reporting Station
Overcast Overcast  
Wind Chill: 52°   Ceiling: 2700
Heat Index: 52°   Visibility: 10mi
Dew Point: 46°   Wind: 13mph
Humidity: 82%   Direction: 350°N
Pressure: 29.85"   Gusts: 17mph
Location:  40.53°N, 75.18°W
Report Text: KUKT 230215Z AUTO 35011G15KT 10SM SCT022 BKN027 OVC040 11/08 A2985 RMK AO1
Loading
Personal Weather Stations






























Interactive Weather Map
Tropical Storm Tracking
New forecast layout! Learn more

10-Day Weather Forecast

Advertisements
Track Severe Weather on mobile